sensor_id;sensor_type;location;lat;lon;timestamp;pressure;altitude;pressure_sealevel;temperature;humidity
66742;BME280;53654;54.152;19.432;2023-03-25T00:00:58;100170.88;;;8.09;87.07
66742;BME280;53654;54.152;19.432;2023-03-25T00:03:29;100180.61;;;8.08;87.43
66742;BME280;53654;54.152;19.432;2023-03-25T00:06:00;100181.67;;;8.06;87.39
66742;BME280;53654;54.152;19.432;2023-03-25T00:08:28;100180.48;;;8.04;86.96
66742;BME280;53654;54.152;19.432;2023-03-25T00:10:58;100177.71;;;8.01;86.68
66742;BME280;53654;54.152;19.432;2023-03-25T00:13:26;100168.71;;;7.96;86.45
66742;BME280;53654;54.152;19.432;2023-03-25T00:15:54;100171.87;;;7.92;86.69
66742;BME280;53654;54.152;19.432;2023-03-25T00:18:27;100163.90;;;7.90;86.87
66742;BME280;53654;54.152;19.432;2023-03-25T00:21:03;100157.14;;;7.87;86.84
66742;BME280;53654;54.152;19.432;2023-03-25T00:23:32;100146.23;;;7.82;86.79
66742;BME280;53654;54.152;19.432;2023-03-25T00:26:00;100137.09;;;7.75;86.81
66742;BME280;53654;54.152;19.432;2023-03-25T00:28:30;100132.41;;;7.72;87.10
66742;BME280;53654;54.152;19.432;2023-03-25T00:31:11;100126.36;;;7.70;87.71
66742;BME280;53654;54.152;19.432;2023-03-25T00:33:40;100127.05;;;7.68;88.29
66742;BME280;53654;54.152;19.432;2023-03-25T00:36:11;100120.45;;;7.69;88.51
66742;BME280;53654;54.152;19.432;2023-03-25T00:38:42;100115.95;;;7.68;87.95
66742;BME280;53654;54.152;19.432;2023-03-25T00:41:18;100117.19;;;7.65;87.23
66742;BME280;53654;54.152;19.432;2023-03-25T00:43:52;100113.92;;;7.61;86.74
66742;BME280;53654;54.152;19.432;2023-03-25T00:46:22;100116.55;;;7.57;86.66
66742;BME280;53654;54.152;19.432;2023-03-25T00:48:51;100119.34;;;7.54;87.26
66742;BME280;53654;54.152;19.432;2023-03-25T00:51:20;100125.59;;;7.55;88.04
66742;BME280;53654;54.152;19.432;2023-03-25T00:53:54;100124.19;;;7.55;88.43
66742;BME280;53654;54.152;19.432;2023-03-25T00:56:23;100125.41;;;7.55;88.87
66742;BME280;53654;54.152;19.432;2023-03-25T00:58:51;100126.61;;;7.55;88.99
66742;BME280;53654;54.152;19.432;2023-03-25T01:01:22;100126.61;;;7.57;88.71
66742;BME280;53654;54.152;19.432;2023-03-25T01:03:55;100131.83;;;7.55;88.54
66742;BME280;53654;54.152;19.432;2023-03-25T01:06:35;100127.50;;;7.54;88.76
66742;BME280;53654;54.152;19.432;2023-03-25T01:09:05;100127.52;;;7.52;88.47
66742;BME280;53654;54.152;19.432;2023-03-25T01:11:34;100120.73;;;7.52;88.47
66742;BME280;53654;54.152;19.432;2023-03-25T01:14:09;100111.54;;;7.52;88.44
66742;BME280;53654;54.152;19.432;2023-03-25T01:16:38;100109.80;;;7.52;88.28
66742;BME280;53654;54.152;19.432;2023-03-25T01:19:07;100113.45;;;7.53;88.11
66742;BME280;53654;54.152;19.432;2023-03-25T01:21:35;100113.45;;;7.50;87.41
66742;BME280;53654;54.152;19.432;2023-03-25T01:24:05;100113.48;;;7.48;87.03
66742;BME280;53654;54.152;19.432;2023-03-25T01:26:33;100111.95;;;7.44;86.71
66742;BME280;53654;54.152;19.432;2023-03-25T01:29:01;100122.54;;;7.41;86.84
66742;BME280;53654;54.152;19.432;2023-03-25T01:31:30;100133.48;;;7.39;87.83
66742;BME280;53654;54.152;19.432;2023-03-25T01:33:59;100139.36;;;7.41;88.23
66742;BME280;53654;54.152;19.432;2023-03-25T01:36:27;100140.41;;;7.40;88.77
66742;BME280;53654;54.152;19.432;2023-03-25T01:38:59;100137.46;;;7.41;89.07
66742;BME280;53654;54.152;19.432;2023-03-25T01:41:28;100132.09;;;7.41;89.21
66742;BME280;53654;54.152;19.432;2023-03-25T01:46:42;100139.55;;;7.41;89.35
66742;BME280;53654;54.152;19.432;2023-03-25T01:49:17;100140.76;;;7.41;89.32
66742;BME280;53654;54.152;19.432;2023-03-25T01:51:55;100149.27;;;7.40;89.21
66742;BME280;53654;54.152;19.432;2023-03-25T01:54:25;100152.55;;;7.40;89.10
66742;BME280;53654;54.152;19.432;2023-03-25T01:56:54;100150.99;;;7.41;88.99
66742;BME280;53654;54.152;19.432;2023-03-25T01:59:25;100143.52;;;7.42;89.20
66742;BME280;53654;54.152;19.432;2023-03-25T02:01:56;100126.35;;;7.42;89.34
66742;BME280;53654;54.152;19.432;2023-03-25T02:07:12;100118.74;;;7.37;89.39
66742;BME280;53654;54.152;19.432;2023-03-25T02:09:43;100116.14;;;7.38;89.52
66742;BME280;53654;54.152;19.432;2023-03-25T02:12:11;100113.35;;;7.39;89.85
66742;BME280;53654;54.152;19.432;2023-03-25T02:14:39;100106.91;;;7.42;89.90
66742;BME280;53654;54.152;19.432;2023-03-25T02:22:54;100090.94;;;7.44;89.51
66742;BME280;53654;54.152;19.432;2023-03-25T02:25:52;100091.98;;;7.41;89.22
66742;BME280;53654;54.152;19.432;2023-03-25T02:29:25;100091.83;;;7.39;89.11
66742;BME280;53654;54.152;19.432;2023-03-25T02:43:30;100072.80;;;7.31;89.46
66742;BME280;53654;54.152;19.432;2023-03-25T02:46:03;100077.31;;;7.31;89.20
66742;BME280;53654;54.152;19.432;2023-03-25T02:48:43;100082.16;;;7.31;88.70
66742;BME280;53654;54.152;19.432;2023-03-25T02:51:19;100079.39;;;7.29;87.94
66742;BME280;53654;54.152;19.432;2023-03-25T02:53:49;100087.91;;;7.28;87.73
66742;BME280;53654;54.152;19.432;2023-03-25T02:56:20;100081.17;;;7.22;87.63
66742;BME280;53654;54.152;19.432;2023-03-25T02:58:52;100088.30;;;7.20;88.26
66742;BME280;53654;54.152;19.432;2023-03-25T03:01:24;100087.95;;;7.19;89.44
66742;BME280;53654;54.152;19.432;2023-03-25T03:03:55;100093.50;;;7.21;90.25
66742;BME280;53654;54.152;19.432;2023-03-25T03:06:24;100093.13;;;7.25;90.54
66742;BME280;53654;54.152;19.432;2023-03-25T03:17:13;100097.77;;;7.34;90.23
66742;BME280;53654;54.152;19.432;2023-03-25T03:19:51;100096.37;;;7.35;90.21
66742;BME280;53654;54.152;19.432;2023-03-25T03:28:04;100089.09;;;7.33;90.11
66742;BME280;53654;54.152;19.432;2023-03-25T03:30:44;100085.45;;;7.33;89.91
66742;BME280;53654;54.152;19.432;2023-03-25T03:33:21;100084.94;;;7.32;89.90
66742;BME280;53654;54.152;19.432;2023-03-25T03:36:01;100083.55;;;7.31;89.82
66742;BME280;53654;54.152;19.432;2023-03-25T03:38:54;100079.04;;;7.32;89.57
66742;BME280;53654;54.152;19.432;2023-03-25T03:41:26;100076.45;;;7.30;89.24
66742;BME280;53654;54.152;19.432;2023-03-25T03:43:59;100080.61;;;7.29;89.07
66742;BME280;53654;54.152;19.432;2023-03-25T03:49:02;100084.44;;;7.28;89.14
66742;BME280;53654;54.152;19.432;2023-03-25T03:51:40;100085.84;;;7.26;89.09
66742;BME280;53654;54.152;19.432;2023-03-25T03:54:25;100084.45;;;7.26;89.03
66742;BME280;53654;54.152;19.432;2023-03-25T03:57:00;100081.52;;;7.24;88.92
66742;BME280;53654;54.152;19.432;2023-03-25T04:02:07;100080.14;;;7.22;88.69
66742;BME280;53654;54.152;19.432;2023-03-25T04:04:41;100081.36;;;7.20;88.72
66742;BME280;53654;54.152;19.432;2023-03-25T04:07:17;100076.34;;;7.18;88.67
66742;BME280;53654;54.152;19.432;2023-03-25T04:12:48;100071.35;;;7.10;88.88
66742;BME280;53654;54.152;19.432;2023-03-25T04:15:17;100063.54;;;7.11;88.91
66742;BME280;53654;54.152;19.432;2023-03-25T04:17:46;100060.06;;;7.13;88.88
66742;BME280;53654;54.152;19.432;2023-03-25T04:20:20;100062.14;;;7.13;88.60
66742;BME280;53654;54.152;19.432;2023-03-25T04:22:51;100068.56;;;7.12;88.52
66742;BME280;53654;54.152;19.432;2023-03-25T04:25:20;100064.92;;;7.13;88.43
66742;BME280;53654;54.152;19.432;2023-03-25T04:27:52;100071.18;;;7.10;88.21
66742;BME280;53654;54.152;19.432;2023-03-25T04:30:27;100072.93;;;7.07;88.08
66742;BME280;53654;54.152;19.432;2023-03-25T04:32:56;100072.08;;;7.05;88.11
66742;BME280;53654;54.152;19.432;2023-03-25T04:35:24;100071.90;;;7.03;88.33
66742;BME280;53654;54.152;19.432;2023-03-25T04:37:52;100072.77;;;7.04;88.41
66742;BME280;53654;54.152;19.432;2023-03-25T04:40:21;100069.98;;;7.07;88.33
66742;BME280;53654;54.152;19.432;2023-03-25T04:42:52;100072.92;;;7.08;88.27
66742;BME280;53654;54.152;19.432;2023-03-25T04:45:20;100078.29;;;7.11;87.99
66742;BME280;53654;54.152;19.432;2023-03-25T04:47:49;100078.45;;;7.11;87.74
66742;BME280;53654;54.152;19.432;2023-03-25T04:50:28;100084.01;;;7.11;87.74
66742;BME280;53654;54.152;19.432;2023-03-25T04:52:57;100088.00;;;7.11;87.69
66742;BME280;53654;54.152;19.432;2023-03-25T04:55:27;100092.69;;;7.09;87.38
66742;BME280;53654;54.152;19.432;2023-03-25T04:57:56;100096.19;;;7.05;87.25
66742;BME280;53654;54.152;19.432;2023-03-25T05:00:25;100101.73;;;7.04;87.26
66742;BME280;53654;54.152;19.432;2023-03-25T05:02:54;100102.09;;;7.03;87.28
66742;BME280;53654;54.152;19.432;2023-03-25T05:05:24;100101.05;;;7.03;87.49
66742;BME280;53654;54.152;19.432;2023-03-25T05:07:54;100103.30;;;7.04;87.52
66742;BME280;53654;54.152;19.432;2023-03-25T05:10:25;100104.32;;;7.07;87.82
66742;BME280;53654;54.152;19.432;2023-03-25T05:12:58;100102.81;;;7.28;88.76
66742;BME280;53654;54.152;19.432;2023-03-25T05:15:27;100102.63;;;7.85;89.12
66742;BME280;53654;54.152;19.432;2023-03-25T05:17:58;100108.03;;;8.45;87.51
66742;BME280;53654;54.152;19.432;2023-03-25T05:20:26;100111.26;;;9.00;85.31
66742;BME280;53654;54.152;19.432;2023-03-25T05:22:55;100114.44;;;9.23;83.16
66742;BME280;53654;54.152;19.432;2023-03-25T05:25:24;100108.34;;;9.24;82.41
66742;BME280;53654;54.152;19.432;2023-03-25T05:27:52;100105.14;;;9.29;82.24
66742;BME280;53654;54.152;19.432;2023-03-25T05:30:21;100104.69;;;9.36;81.57
66742;BME280;53654;54.152;19.432;2023-03-25T05:32:49;100110.27;;;9.36;81.08
66742;BME280;53654;54.152;19.432;2023-03-25T05:35:23;100114.65;;;9.33;81.34
66742;BME280;53654;54.152;19.432;2023-03-25T05:37:53;100118.10;;;9.35;81.35
66742;BME280;53654;54.152;19.432;2023-03-25T05:40:22;100121.38;;;9.38;80.54
66742;BME280;53654;54.152;19.432;2023-03-25T05:42:52;100123.45;;;9.41;80.30
66742;BME280;53654;54.152;19.432;2023-03-25T05:45:22;100125.63;;;9.45;80.37
66742;BME280;53654;54.152;19.432;2023-03-25T05:47:50;100124.77;;;9.57;79.97
66742;BME280;53654;54.152;19.432;2023-03-25T05:50:19;100125.64;;;9.80;79.48
66742;BME280;53654;54.152;19.432;2023-03-25T05:52:48;100126.27;;;10.30;78.62
66742;BME280;53654;54.152;19.432;2023-03-25T05:55:21;100129.83;;;11.03;76.14
66742;BME280;53654;54.152;19.432;2023-03-25T05:57:49;100127.37;;;11.45;73.69
66742;BME280;53654;54.152;19.432;2023-03-25T06:00:19;100126.45;;;11.47;72.68
66742;BME280;53654;54.152;19.432;2023-03-25T06:02:50;100125.80;;;11.37;72.48
66742;BME280;53654;54.152;19.432;2023-03-25T06:05:19;100124.17;;;11.39;72.34
66742;BME280;53654;54.152;19.432;2023-03-25T06:07:51;100125.77;;;11.53;71.99
66742;BME280;53654;54.152;19.432;2023-03-25T06:10:23;100126.75;;;11.57;71.69
66742;BME280;53654;54.152;19.432;2023-03-25T06:12:51;100125.96;;;11.53;71.33
66742;BME280;53654;54.152;19.432;2023-03-25T06:15:21;100131.73;;;11.44;71.43
66742;BME280;53654;54.152;19.432;2023-03-25T06:17:56;100129.59;;;11.30;71.95
66742;BME280;53654;54.152;19.432;2023-03-25T06:20:25;100131.85;;;11.22;72.09
66742;BME280;53654;54.152;19.432;2023-03-25T06:22:53;100131.55;;;11.12;72.53
66742;BME280;53654;54.152;19.432;2023-03-25T06:25:22;100130.56;;;11.01;73.04
66742;BME280;53654;54.152;19.432;2023-03-25T06:27:51;100127.48;;;10.89;73.56
66742;BME280;53654;54.152;19.432;2023-03-25T06:30:20;100130.35;;;10.85;74.27
66742;BME280;53654;54.152;19.432;2023-03-25T06:32:48;100132.87;;;10.81;74.80
66742;BME280;53654;54.152;19.432;2023-03-25T06:35:22;100132.99;;;10.75;74.99
66742;BME280;53654;54.152;19.432;2023-03-25T06:37:50;100128.65;;;10.74;75.13
66742;BME280;53654;54.152;19.432;2023-03-25T06:40:45;100128.54;;;10.70;75.46
66742;BME280;53654;54.152;19.432;2023-03-25T06:43:15;100127.86;;;10.70;76.12
66742;BME280;53654;54.152;19.432;2023-03-25T06:46:19;100124.70;;;10.70;76.74
66742;BME280;53654;54.152;19.432;2023-03-25T06:49:06;100124.58;;;10.76;77.39
66742;BME280;53654;54.152;19.432;2023-03-25T06:51:34;100118.33;;;10.84;77.96
66742;BME280;53654;54.152;19.432;2023-03-25T06:54:02;100119.20;;;10.93;77.79
66742;BME280;53654;54.152;19.432;2023-03-25T06:56:30;100116.45;;;11.00;77.07
66742;BME280;53654;54.152;19.432;2023-03-25T06:58:58;100123.25;;;11.08;76.73
66742;BME280;53654;54.152;19.432;2023-03-25T07:01:27;100122.80;;;11.13;76.58
66742;BME280;53654;54.152;19.432;2023-03-25T07:03:55;100120.87;;;11.14;76.42
66742;BME280;53654;54.152;19.432;2023-03-25T07:06:23;100120.28;;;11.17;76.09
66742;BME280;53654;54.152;19.432;2023-03-25T07:08:52;100119.12;;;11.22;76.17
66742;BME280;53654;54.152;19.432;2023-03-25T07:11:25;100123.91;;;11.26;75.39
66742;BME280;53654;54.152;19.432;2023-03-25T07:13:54;100133.54;;;11.34;75.78
66742;BME280;53654;54.152;19.432;2023-03-25T07:16:24;100130.83;;;11.39;75.49
66742;BME280;53654;54.152;19.432;2023-03-25T07:18:53;100132.33;;;11.41;75.08
66742;BME280;53654;54.152;19.432;2023-03-25T07:21:26;100131.54;;;11.45;75.18
66742;BME280;53654;54.152;19.432;2023-03-25T07:23:54;100133.17;;;11.50;74.80
66742;BME280;53654;54.152;19.432;2023-03-25T07:26:23;100127.20;;;11.52;74.56
66742;BME280;53654;54.152;19.432;2023-03-25T07:28:51;100126.05;;;11.57;75.08
66742;BME280;53654;54.152;19.432;2023-03-25T07:31:19;100121.23;;;11.61;75.29
66742;BME280;53654;54.152;19.432;2023-03-25T07:33:47;100123.77;;;11.65;75.02
66742;BME280;53654;54.152;19.432;2023-03-25T07:36:15;100122.46;;;11.69;74.90
66742;BME280;53654;54.152;19.432;2023-03-25T07:38:44;100119.35;;;11.75;75.01
66742;BME280;53654;54.152;19.432;2023-03-25T07:41:13;100117.17;;;11.79;74.58
66742;BME280;53654;54.152;19.432;2023-03-25T07:43:54;100112.60;;;11.81;73.95
66742;BME280;53654;54.152;19.432;2023-03-25T07:46:27;100114.70;;;11.88;73.93
66742;BME280;53654;54.152;19.432;2023-03-25T07:48:55;100117.84;;;11.96;73.51
66742;BME280;53654;54.152;19.432;2023-03-25T07:51:23;100115.13;;;11.99;73.25
66742;BME280;53654;54.152;19.432;2023-03-25T07:53:51;100117.65;;;12.04;72.57
66742;BME280;53654;54.152;19.432;2023-03-25T07:56:19;100116.57;;;12.05;71.86
66742;BME280;53654;54.152;19.432;2023-03-25T07:58:47;100114.29;;;12.12;72.82
66742;BME280;53654;54.152;19.432;2023-03-25T08:01:16;100110.50;;;12.23;73.09
66742;BME280;53654;54.152;19.432;2023-03-25T08:03:44;100113.08;;;12.39;73.14
66742;BME280;53654;54.152;19.432;2023-03-25T08:06:12;100115.82;;;12.54;71.98
66742;BME280;53654;54.152;19.432;2023-03-25T08:08:40;100111.36;;;12.71;71.79
66742;BME280;53654;54.152;19.432;2023-03-25T08:11:09;100109.55;;;12.79;70.68
66742;BME280;53654;54.152;19.432;2023-03-25T08:13:38;100109.70;;;12.86;70.63
66742;BME280;53654;54.152;19.432;2023-03-25T08:16:13;100109.27;;;12.90;70.60
66742;BME280;53654;54.152;19.432;2023-03-25T08:18:41;100109.73;;;12.97;69.80
66742;BME280;53654;54.152;19.432;2023-03-25T08:21:12;100113.01;;;13.11;69.16
66742;BME280;53654;54.152;19.432;2023-03-25T08:23:40;100110.79;;;13.29;68.41
66742;BME280;53654;54.152;19.432;2023-03-25T08:26:08;100112.54;;;13.40;67.75
66742;BME280;53654;54.152;19.432;2023-03-25T08:28:37;100111.08;;;13.42;67.71
66742;BME280;53654;54.152;19.432;2023-03-25T08:31:05;100109.41;;;13.40;67.14
66742;BME280;53654;54.152;19.432;2023-03-25T08:33:35;100113.34;;;13.32;66.59
66742;BME280;53654;54.152;19.432;2023-03-25T08:36:09;100111.13;;;13.23;67.19
66742;BME280;53654;54.152;19.432;2023-03-25T08:38:41;100109.43;;;13.14;66.79
66742;BME280;53654;54.152;19.432;2023-03-25T08:41:09;100109.55;;;13.10;67.04
66742;BME280;53654;54.152;19.432;2023-03-25T08:43:37;100104.52;;;13.08;67.55
66742;BME280;53654;54.152;19.432;2023-03-25T08:46:05;100104.73;;;13.07;67.83
66742;BME280;53654;54.152;19.432;2023-03-25T08:48:34;100104.36;;;13.02;67.63
66742;BME280;53654;54.152;19.432;2023-03-25T08:51:03;100103.14;;;13.01;67.97
66742;BME280;53654;54.152;19.432;2023-03-25T08:53:31;100097.34;;;13.02;67.60
66742;BME280;53654;54.152;19.432;2023-03-25T08:55:59;100091.39;;;13.02;67.62
66742;BME280;53654;54.152;19.432;2023-03-25T08:58:27;100089.49;;;13.07;67.71
66742;BME280;53654;54.152;19.432;2023-03-25T09:00:56;100090.79;;;13.17;67.97
66742;BME280;53654;54.152;19.432;2023-03-25T09:03:24;100092.52;;;13.25;68.20
66742;BME280;53654;54.152;19.432;2023-03-25T09:05:54;100092.34;;;13.31;67.91
66742;BME280;53654;54.152;19.432;2023-03-25T09:08:22;100091.67;;;13.35;66.96
66742;BME280;53654;54.152;19.432;2023-03-25T09:10:50;100087.71;;;13.39;67.13
66742;BME280;53654;54.152;19.432;2023-03-25T09:13:18;100089.50;;;13.43;67.60
66742;BME280;53654;54.152;19.432;2023-03-25T09:15:46;100084.56;;;13.44;66.74
66742;BME280;53654;54.152;19.432;2023-03-25T09:18:14;100084.66;;;13.46;67.23
66742;BME280;53654;54.152;19.432;2023-03-25T09:20:43;100078.52;;;13.53;67.50
66742;BME280;53654;54.152;19.432;2023-03-25T09:23:15;100075.71;;;13.58;67.30
66742;BME280;53654;54.152;19.432;2023-03-25T09:25:43;100076.32;;;13.67;67.44
66742;BME280;53654;54.152;19.432;2023-03-25T09:28:13;100072.98;;;13.72;67.71
66742;BME280;53654;54.152;19.432;2023-03-25T09:30:41;100074.23;;;13.77;67.52
66742;BME280;53654;54.152;19.432;2023-03-25T09:33:09;100072.63;;;13.83;68.03
66742;BME280;53654;54.152;19.432;2023-03-25T09:35:39;100073.50;;;13.89;67.13
66742;BME280;53654;54.152;19.432;2023-03-25T09:38:08;100069.93;;;13.91;66.91
66742;BME280;53654;54.152;19.432;2023-03-25T09:40:36;100063.27;;;13.96;67.06
66742;BME280;53654;54.152;19.432;2023-03-25T09:45:46;100066.26;;;14.07;67.13
66742;BME280;53654;54.152;19.432;2023-03-25T09:48:38;100065.02;;;14.12;66.60
66742;BME280;53654;54.152;19.432;2023-03-25T09:51:21;100063.09;;;14.17;66.06
66742;BME280;53654;54.152;19.432;2023-03-25T09:53:57;100065.82;;;14.24;66.43
66742;BME280;53654;54.152;19.432;2023-03-25T09:56:28;100064.37;;;14.31;64.93
66742;BME280;53654;54.152;19.432;2023-03-25T09:59:05;100068.92;;;14.36;64.34
66742;BME280;53654;54.152;19.432;2023-03-25T10:10:40;100067.20;;;14.40;62.51
66742;BME280;53654;54.152;19.432;2023-03-25T10:21:31;100054.46;;;14.49;62.81
66742;BME280;53654;54.152;19.432;2023-03-25T10:24:22;100047.17;;;14.51;62.99
66742;BME280;53654;54.152;19.432;2023-03-25T10:29:55;100036.31;;;14.66;63.39
66742;BME280;53654;54.152;19.432;2023-03-25T10:32:31;100035.23;;;14.71;62.90
66742;BME280;53654;54.152;19.432;2023-03-25T10:35:03;100032.01;;;14.77;62.47
66742;BME280;53654;54.152;19.432;2023-03-25T10:37:34;100031.98;;;14.83;61.80
66742;BME280;53654;54.152;19.432;2023-03-25T10:40:30;100030.38;;;14.88;61.44
66742;BME280;53654;54.152;19.432;2023-03-25T10:43:12;100028.39;;;14.90;61.11
66742;BME280;53654;54.152;19.432;2023-03-25T10:45:45;100026.21;;;14.92;61.26
66742;BME280;53654;54.152;19.432;2023-03-25T10:50:47;100026.83;;;14.98;60.94
66742;BME280;53654;54.152;19.432;2023-03-25T10:53:22;100022.55;;;15.00;60.64
66742;BME280;53654;54.152;19.432;2023-03-25T10:55:58;100021.17;;;15.00;60.53
66742;BME280;53654;54.152;19.432;2023-03-25T10:58:29;100019.86;;;14.97;60.98
66742;BME280;53654;54.152;19.432;2023-03-25T11:00:59;100019.99;;;14.98;61.39
66742;BME280;53654;54.152;19.432;2023-03-25T11:03:31;100020.95;;;15.01;61.57
66742;BME280;53654;54.152;19.432;2023-03-25T11:06:01;100016.70;;;15.01;61.54
66742;BME280;53654;54.152;19.432;2023-03-25T11:08:31;100012.09;;;15.03;61.05
66742;BME280;53654;54.152;19.432;2023-03-25T11:10:59;100010.50;;;15.03;61.32
66742;BME280;53654;54.152;19.432;2023-03-25T11:13:33;100006.38;;;15.05;61.42
66742;BME280;53654;54.152;19.432;2023-03-25T11:16:02;100003.40;;;15.09;60.22
66742;BME280;53654;54.152;19.432;2023-03-25T11:18:36;100003.95;;;15.13;59.85
66742;BME280;53654;54.152;19.432;2023-03-25T11:21:11;100000.23;;;15.19;59.95
66742;BME280;53654;54.152;19.432;2023-03-25T11:23:48;99995.70;;;15.22;59.83
66742;BME280;53654;54.152;19.432;2023-03-25T11:26:20;99992.32;;;15.28;60.66
66742;BME280;53654;54.152;19.432;2023-03-25T11:28:53;99985.98;;;15.32;59.95
66742;BME280;53654;54.152;19.432;2023-03-25T11:31:25;99980.35;;;15.33;58.88
66742;BME280;53654;54.152;19.432;2023-03-25T11:41:50;99972.52;;;15.09;59.64
66742;BME280;53654;54.152;19.432;2023-03-25T11:44:26;99972.77;;;15.02;59.69
66742;BME280;53654;54.152;19.432;2023-03-25T11:47:04;99967.39;;;14.96;60.00
66742;BME280;53654;54.152;19.432;2023-03-25T11:49:35;99963.64;;;14.89;60.01
66742;BME280;53654;54.152;19.432;2023-03-25T11:52:17;99958.70;;;14.84;60.31
66742;BME280;53654;54.152;19.432;2023-03-25T11:54:47;99956.25;;;14.80;60.08
66742;BME280;53654;54.152;19.432;2023-03-25T11:57:19;99960.52;;;14.78;59.65
66742;BME280;53654;54.152;19.432;2023-03-25T11:59:59;99957.02;;;14.78;59.49
66742;BME280;53654;54.152;19.432;2023-03-25T12:02:39;99956.73;;;14.77;60.19
66742;BME280;53654;54.152;19.432;2023-03-25T12:07:50;99956.05;;;14.85;58.80
66742;BME280;53654;54.152;19.432;2023-03-25T12:10:35;99959.15;;;14.87;59.06
66742;BME280;53654;54.152;19.432;2023-03-25T12:13:37;99959.77;;;14.80;61.02
66742;BME280;53654;54.152;19.432;2023-03-25T12:16:43;99963.48;;;14.65;62.41
66742;BME280;53654;54.152;19.432;2023-03-25T12:27:30;99972.81;;;14.30;64.35
66742;BME280;53654;54.152;19.432;2023-03-25T12:33:27;100007.20;;;13.95;62.98
66742;BME280;53654;54.152;19.432;2023-03-25T12:38:44;100012.80;;;13.36;64.12
66742;BME280;53654;54.152;19.432;2023-03-25T12:41:27;100018.79;;;13.06;66.04
66742;BME280;53654;54.152;19.432;2023-03-25T12:46:53;100012.60;;;12.54;69.25
66742;BME280;53654;54.152;19.432;2023-03-25T13:00:02;100006.36;;;12.01;76.09
66742;BME280;53654;54.152;19.432;2023-03-25T13:02:53;100001.48;;;12.01;76.36
66742;BME280;53654;54.152;19.432;2023-03-25T13:10:54;99985.21;;;12.01;77.73
66742;BME280;53654;54.152;19.432;2023-03-25T13:13:24;99983.12;;;12.07;78.29
66742;BME280;53654;54.152;19.432;2023-03-25T13:16:29;99978.73;;;12.14;78.98
66742;BME280;53654;54.152;19.432;2023-03-25T13:19:19;99976.40;;;12.17;78.53
66742;BME280;53654;54.152;19.432;2023-03-25T13:21:52;99967.83;;;12.23;78.54
66742;BME280;53654;54.152;19.432;2023-03-25T13:26:58;99969.14;;;12.39;78.73
66742;BME280;53654;54.152;19.432;2023-03-25T13:29:32;99967.41;;;12.44;78.23
66742;BME280;53654;54.152;19.432;2023-03-25T13:32:10;99964.21;;;12.52;77.80
66742;BME280;53654;54.152;19.432;2023-03-25T13:34:47;99966.23;;;12.54;76.81
66742;BME280;53654;54.152;19.432;2023-03-25T13:37:39;99966.50;;;12.57;75.18
66742;BME280;53654;54.152;19.432;2023-03-25T13:42:51;99958.30;;;12.63;73.77
66742;BME280;53654;54.152;19.432;2023-03-25T13:45:23;99958.44;;;12.64;73.12
66742;BME280;53654;54.152;19.432;2023-03-25T13:48:09;99955.74;;;12.66;72.90
66742;BME280;53654;54.152;19.432;2023-03-25T13:50:39;99957.61;;;12.68;72.36
66742;BME280;53654;54.152;19.432;2023-03-25T13:53:16;99958.20;;;12.72;71.99
66742;BME280;53654;54.152;19.432;2023-03-25T13:56:00;99955.80;;;12.76;71.74
66742;BME280;53654;54.152;19.432;2023-03-25T13:58:44;99951.31;;;12.80;71.09
66742;BME280;53654;54.152;19.432;2023-03-25T14:01:34;99947.90;;;12.83;70.79
66742;BME280;53654;54.152;19.432;2023-03-25T14:04:36;99944.98;;;12.87;70.67
66742;BME280;53654;54.152;19.432;2023-03-25T14:13:04;99937.30;;;13.03;70.22
66742;BME280;53654;54.152;19.432;2023-03-25T14:15:36;99933.09;;;13.08;69.45
66742;BME280;53654;54.152;19.432;2023-03-25T14:18:15;99930.60;;;13.15;68.91
66742;BME280;53654;54.152;19.432;2023-03-25T14:20:44;99934.64;;;13.21;68.23
66742;BME280;53654;54.152;19.432;2023-03-25T14:23:18;99931.05;;;13.24;66.87
66742;BME280;53654;54.152;19.432;2023-03-25T14:25:52;99928.91;;;13.25;66.29
66742;BME280;53654;54.152;19.432;2023-03-25T14:28:34;99920.29;;;13.27;66.34
66742;BME280;53654;54.152;19.432;2023-03-25T14:31:16;99920.73;;;13.29;66.70
66742;BME280;53654;54.152;19.432;2023-03-25T14:39:57;99911.08;;;13.35;65.90
66742;BME280;53654;54.152;19.432;2023-03-25T14:42:00;99912.28;;;13.36;66.56
66742;BME280;53654;54.152;19.432;2023-03-25T14:44:31;99911.36;;;13.37;66.18
66742;BME280;53654;54.152;19.432;2023-03-25T14:52:51;99913.30;;;13.36;66.52
66742;BME280;53654;54.152;19.432;2023-03-25T14:55:26;99910.30;;;13.37;66.32
66742;BME280;53654;54.152;19.432;2023-03-25T14:58:04;99907.45;;;13.38;66.46
66742;BME280;53654;54.152;19.432;2023-03-25T15:00:39;99910.64;;;13.38;66.37
66742;BME280;53654;54.152;19.432;2023-03-25T15:03:14;99909.81;;;13.36;66.71
66742;BME280;53654;54.152;19.432;2023-03-25T15:05:52;99911.77;;;13.35;66.38
66742;BME280;53654;54.152;19.432;2023-03-25T15:08:32;99918.10;;;13.34;66.02
66742;BME280;53654;54.152;19.432;2023-03-25T15:11:11;99936.84;;;13.30;66.31
66742;BME280;53654;54.152;19.432;2023-03-25T15:13:47;99937.36;;;13.12;67.43
66742;BME280;53654;54.152;19.432;2023-03-25T15:21:23;99926.00;;;12.48;69.36
66742;BME280;53654;54.152;19.432;2023-03-25T15:31:57;99936.92;;;11.96;70.09
66742;BME280;53654;54.152;19.432;2023-03-25T15:34:56;99950.64;;;11.86;70.54
66742;BME280;53654;54.152;19.432;2023-03-25T15:49:57;99961.79;;;11.59;73.69
66742;BME280;53654;54.152;19.432;2023-03-25T15:55:21;99964.60;;;11.65;73.90
66742;BME280;53654;54.152;19.432;2023-03-25T15:57:58;99962.54;;;11.71;73.86
66742;BME280;53654;54.152;19.432;2023-03-25T16:00:34;99959.83;;;11.75;73.84